| time (UTC) | temp C | wind direction | speed KPH | gust KPH | rain 1hr cm | rain 24hr cm | rain mn cm | humidity % | barometer mb |
| 20260507190027 | 16 | 328 | 19.3 | 0.0 | 0.00 | 0.00 | 0.00 | 32 | 1006.4 |
| 20260507185546 | 16 | 284 | 19.3 | 0.0 | 0.00 | 0.00 | 0.00 | 32 | 1006.5 |
| 20260507185105 | 16 | 304 | 17.7 | 0.0 | 0.00 | 0.00 | 0.00 | 33 | 1006.6 |
| 20260507184517 | 16 | 268 | 19.3 | 0.0 | 0.00 | 0.00 | 0.00 | 32 | 1006.7 |
| 20260507184028 | 16 | 264 | 19.3 | 0.0 | 0.00 | 0.00 | 0.00 | 32 | 1006.8 |
| 20260507183549 | 16 | 292 | 19.3 | 0.0 | 0.00 | 0.00 | 0.00 | 34 | 1006.7 |
| 20260507183008 | 15 | 300 | 16.1 | 0.0 | 0.00 | 0.00 | 0.00 | 35 | 1006.8 |
| 20260507182533 | 15 | 279 | 16.1 | 0.0 | 0.00 | 0.00 | 0.00 | 35 | 1006.9 |
| 20260507182053 | 15 | 338 | 16.1 | 0.0 | 0.00 | 0.00 | 0.00 | 34 | 1006.8 |
| 20260507181503 | 15 | 323 | 14.5 | 0.0 | 0.00 | 0.00 | 0.00 | 35 | 1006.8 |
| 20260507181020 | 15 | 317 | 19.3 | 0.0 | 0.00 | 0.00 | 0.00 | 34 | 1007.1 |
| 20260507180536 | 15 | 297 | 19.3 | 0.0 | 0.00 | 0.00 | 0.00 | 34 | 1007.2 |
| 20260507180054 | 15 | 292 | 14.5 | 0.0 | 0.00 | 0.00 | 0.00 | 34 | 1007.1 |
| 20260507175508 | 15 | 273 | 14.5 | 0.0 | 0.00 | 0.00 | 0.00 | 35 | 1007.2 |
| 20260507175024 | 15 | 302 | 16.1 | 0.0 | 0.00 | 0.00 | 0.00 | 34 | 1007.2 |
| 20260507174550 | 15 | 288 | 16.1 | 0.0 | 0.00 | 0.00 | 0.00 | 36 | 1007.2 |
| 20260507174102 | 15 | 273 | 16.1 | 0.0 | 0.00 | 0.00 | 0.00 | 35 | 1007.2 |
| 20260507173518 | 15 | 276 | 16.1 | 0.0 | 0.00 | 0.00 | 0.00 | 35 | 1007.2 |
| 20260507173036 | 15 | 266 | 17.7 | 0.0 | 0.00 | 0.00 | 0.00 | 35 | 1007.2 |
| 20260507172547 | 15 | 296 | 16.1 | 0.0 | 0.00 | 0.00 | 0.00 | 35 | 1007.2 |
| 20260507172104 | 15 | 360 | 19.3 | 0.0 | 0.00 | 0.00 | 0.00 | 35 | 1007.2 |
| 20260507171515 | 15 | 314 | 20.9 | 0.0 | 0.00 | 0.00 | 0.00 | 35 | 1007.3 |
| 20260507171035 | 15 | 303 | 17.7 | 0.0 | 0.00 | 0.00 | 0.00 | 34 | 1007.2 |
| 20260507170554 | 15 | 304 | 17.7 | 0.0 | 0.00 | 0.00 | 0.00 | 38 | 1007.3 |
| 20260507170002 | 15 | 292 | 17.7 | 0.0 | 0.00 | 0.00 | 0.00 | 36 | 1007.5 |
| 20260507165517 | 15 | 302 | 16.1 | 0.0 | 0.00 | 0.00 | 0.00 | 35 | 1007.5 |
| 20260507165032 | 15 | 276 | 17.7 | 0.0 | 0.00 | 0.00 | 0.00 | 37 | 1007.4 |
| 20260507164608 | 15 | 283 | 19.3 | 0.0 | 0.00 | 0.00 | 0.00 | 38 | 1007.5 |
| 20260507164011 | 14 | 295 | 19.3 | 0.0 | 0.00 | 0.00 | 0.00 | 37 | 1007.6 |
| 20260507163530 | 14 | 265 | 16.1 | 0.0 | 0.00 | 0.00 | 0.00 | 39 | 1007.5 |
| 20260507163045 | 15 | 270 | 14.5 | 0.0 | 0.00 | 0.00 | 0.00 | 40 | 1007.7 |
| 20260507162605 | 15 | 269 | 14.5 | 0.0 | 0.00 | 0.00 | 0.00 | 39 | 1007.6 |
| 20260507162018 | 15 | 272 | 14.5 | 0.0 | 0.00 | 0.00 | 0.00 | 38 | 1007.7 |
| 20260507161539 | 14 | 283 | 12.9 | 0.0 | 0.00 | 0.00 | 0.00 | 39 | 1007.8 |
| 20260507161054 | 14 | 250 | 16.1 | 0.0 | 0.00 | 0.00 | 0.00 | 37 | 1007.8 |
| 20260507160509 | 15 | 298 | 17.7 | 0.0 | 0.00 | 0.00 | 0.00 | 36 | 1007.9 |
| 20260507160025 | 15 | 314 | 11.3 | 0.0 | 0.00 | 0.00 | 0.00 | 35 | 1007.8 |
| 20260507155535 | 15 | 309 | 6.4 | 0.0 | 0.00 | 0.00 | 0.00 | 39 | 1007.7 |
| 20260507155053 | 15 | 39 | 4.8 | 0.0 | 0.00 | 0.00 | 0.00 | 48 | 1007.8 |
| 20260507154513 | 14 | 120 | 4.8 | 0.0 | 0.00 | 0.00 | 0.00 | 44 | 1007.8 |
| 20260507154026 | 14 | 123 | 6.4 | 0.0 | 0.00 | 0.00 | 0.00 | 44 | 1007.9 |
| 20260507153542 | 13 | 105 | 9.7 | 0.0 | 0.00 | 0.00 | 0.00 | 46 | 1008.0 |
| 20260507153058 | 13 | 130 | 8.0 | 0.0 | 0.00 | 0.00 | 0.00 | 48 | 1008.0 |
| 20260507152510 | 13 | 157 | 9.7 | 0.0 | 0.00 | 0.00 | 0.00 | 48 | 1008.1 |
| 20260507152028 | 13 | 202 | 9.7 | 0.0 | 0.00 | 0.00 | 0.00 | 49 | 1008.4 |
| 20260507151543 | 13 | 170 | 9.7 | 0.0 | 0.00 | 0.00 | 0.00 | 49 | 1008.4 |
| 20260507151059 | 13 | 209 | 9.7 | 0.0 | 0.00 | 0.00 | 0.00 | 49 | 1008.4 |
| 20260507150510 | 13 | 148 | 11.3 | 0.0 | 0.00 | 0.00 | 0.00 | 49 | 1008.4 |
| 20260507150031 | 13 | 189 | 11.3 | 0.0 | 0.00 | 0.00 | 0.00 | 52 | 1008.5 |
| 20260507145548 | 12 | 167 | 9.7 | 0.0 | 0.00 | 0.00 | 0.00 | 52 | 1008.6 |
| 20260507145103 | 12 | 179 | 11.3 | 0.0 | 0.00 | 0.00 | 0.00 | 54 | 1008.8 |
| 20260507144518 | 12 | 199 | 12.9 | 0.0 | 0.00 | 0.00 | 0.00 | 54 | 1008.7 |
| 20260507144041 | 12 | 184 | 12.9 | 0.0 | 0.00 | 0.00 | 0.00 | 53 | 1008.7 |
| 20260507143558 | 12 | 183 | 12.9 | 0.0 | 0.00 | 0.00 | 0.00 | 55 | 1008.7 |
| 20260507143022 | 12 | 178 | 11.3 | 0.0 | 0.00 | 0.00 | 0.00 | 54 | 1008.7 |
| 20260507142537 | 11 | 174 | 9.7 | 0.0 | 0.00 | 0.00 | 0.00 | 57 | 1008.8 |
| 20260507142053 | 11 | 188 | 9.7 | 0.0 | 0.00 | 0.00 | 0.00 | 59 | 1008.8 |
| 20260507141503 | 11 | 177 | 9.7 | 0.0 | 0.00 | 0.00 | 0.00 | 60 | 1008.9 |
| 20260507141027 | 11 | 182 | 9.7 | 0.0 | 0.00 | 0.00 | 0.00 | 60 | 1008.9 |
| 20260507140542 | 10 | 180 | 9.7 | 0.0 | 0.00 | 0.00 | 0.00 | 61 | 1008.9 |
| 20260507135519 | 10 | 187 | 9.7 | 0.0 | 0.00 | 0.00 | 0.00 | 62 | 1008.8 |
| 20260507135038 | 10 | 179 | 9.7 | 0.0 | 0.00 | 0.00 | 0.00 | 64 | 1008.9 |
| 20260507134558 | 9 | 189 | 11.3 | 0.0 | 0.00 | 0.00 | 0.00 | 66 | 1009.0 |
| 20260507134004 | 8 | 190 | 12.9 | 0.0 | 0.00 | 0.00 | 0.00 | 66 | 1009.0 |
| 20260507133521 | 8 | 199 | 12.9 | 0.0 | 0.00 | 0.00 | 0.00 | 66 | 1008.9 |
| 20260507133039 | 8 | 211 | 11.3 | 0.0 | 0.00 | 0.00 | 0.00 | 66 | 1009.0 |
| 20260507132555 | 8 | 199 | 11.3 | 0.0 | 0.00 | 0.00 | 0.00 | 67 | 1009.0 |
| 20260507132010 | 8 | 212 | 9.7 | 0.0 | 0.00 | 0.00 | 0.00 | 66 | 1009.2 |
| 20260507131527 | 8 | 213 | 8.0 | 0.0 | 0.00 | 0.00 | 0.00 | 66 | 1009.1 |
| 20260507131043 | 8 | 208 | 8.0 | 0.0 | 0.00 | 0.00 | 0.00 | 67 | 1009.3 |
| 20260507130558 | 8 | 191 | 8.0 | 0.0 | 0.00 | 0.00 | 0.00 | 68 | 1009.3 |
| 20260507130024 | 7 | 202 | 8.0 | 0.0 | 0.00 | 0.00 | 0.00 | 69 | 1009.4 |
| 20260507125530 | 7 | 186 | 8.0 | 0.0 | 0.00 | 0.00 | 0.00 | 70 | 1009.4 |
| 20260507125044 | 7 | 180 | 6.4 | 0.0 | 0.00 | 0.00 | 0.00 | 71 | 1009.6 |
| 20260507124606 | 6 | 179 | 8.0 | 0.0 | 0.00 | 0.00 | 0.00 | 71 | 1009.4 |
| 20260507124010 | 6 | 179 | 8.0 | 0.0 | 0.00 | 0.00 | 0.00 | 71 | 1009.6 |
| 20260507123528 | 6 | 179 | 8.0 | 0.0 | 0.00 | 0.00 | 0.00 | 71 | 1009.7 |
| 20260507123048 | 6 | 179 | 8.0 | 0.0 | 0.00 | 0.00 | 0.00 | 72 | 1009.7 |
| 20260507122504 | 6 | 179 | 8.0 | 0.0 | 0.00 | 0.00 | 0.00 | 71 | 1009.8 |
| 20260507122023 | 6 | 179 | 8.0 | 0.0 | 0.00 | 0.00 | 0.00 | 71 | 1009.7 |
| 20260507121537 | 6 | 179 | 8.0 | 0.0 | 0.00 | 0.00 | 0.00 | 69 | 1009.7 |
| 20260507121054 | 6 | 179 | 8.0 | 0.0 | 0.00 | 0.00 | 0.00 | 67 | 1009.8 |
| 20260507120511 | 7 | 182 | 6.4 | 0.0 | 0.00 | 0.00 | 0.00 | 63 | 1009.7 |
| 20260507120022 | 8 | 209 | 6.4 | 0.0 | 0.00 | 0.00 | 0.00 | 59 | 1009.9 |
| 20260507115534 | 9 | 209 | 3.2 | 0.0 | 0.00 | 0.00 | 0.00 | 56 | 1009.9 |
| 20260507115049 | 10 | 209 | 3.2 | 0.0 | 0.00 | 0.00 | 0.00 | 53 | 1010.0 |
| 20260507114506 | 10 | 209 | 4.8 | 0.0 | 0.00 | 0.00 | 0.00 | 53 | 1010.0 |
| 20260507114026 | 11 | 209 | 3.2 | 0.0 | 0.00 | 0.00 | 0.00 | 52 | 1009.9 |
| 20260507113540 | 11 | 192 | 3.2 | 0.0 | 0.00 | 0.00 | 0.00 | 51 | 1009.7 |
| 20260507113101 | 11 | 192 | 3.2 | 0.0 | 0.00 | 0.00 | 0.00 | 51 | 1009.9 |
| 20260507112517 | 11 | 192 | 3.2 | 0.0 | 0.00 | 0.00 | 0.00 | 51 | 1010.0 |
| 20260507112033 | 11 | 63 | 3.2 | 0.0 | 0.00 | 0.00 | 0.00 | 52 | 1009.9 |
| 20260507111554 | 11 | 63 | 3.2 | 0.0 | 0.00 | 0.00 | 0.00 | 52 | 1010.0 |
| 20260507111007 | 11 | 63 | 4.8 | 0.0 | 0.00 | 0.00 | 0.00 | 52 | 1010.1 |
| 20260507110524 | 11 | 63 | 6.4 | 0.0 | 0.00 | 0.00 | 0.00 | 52 | 1010.0 |
| 20260507110045 | 11 | 355 | 4.8 | 0.0 | 0.00 | 0.00 | 0.00 | 52 | 1010.2 |
| 20260507105601 | 11 | 340 | 4.8 | 0.0 | 0.00 | 0.00 | 0.00 | 52 | 1010.2 |
| 20260507105013 | 10 | 300 | 4.8 | 0.0 | 0.00 | 0.00 | 0.00 | 53 | 1010.1 |
| 20260507104537 | 10 | 300 | 4.8 | 0.0 | 0.00 | 0.00 | 0.00 | 53 | 1010.2 |
| 20260507104053 | 11 | 300 | 4.8 | 0.0 | 0.00 | 0.00 | 0.00 | 52 | 1010.2 |
| 20260507103506 | 11 | 300 | 6.4 | 0.0 | 0.00 | 0.00 | 0.00 | 51 | 1010.0 |
| 20260507103030 | 11 | 288 | 9.7 | 0.0 | 0.00 | 0.00 | 0.00 | 51 | 1010.0 |
| 20260507102544 | 11 | 282 | 9.7 | 0.0 | 0.00 | 0.00 | 0.00 | 51 | 1010.0 |
| 20260507102104 | 11 | 309 | 9.7 | 0.0 | 0.00 | 0.00 | 0.00 | 51 | 1010.1 |
| 20260507101513 | 11 | 297 | 8.0 | 0.0 | 0.00 | 0.00 | 0.00 | 51 | 1010.1 |
| 20260507101029 | 11 | 306 | 6.4 | 0.0 | 0.00 | 0.00 | 0.00 | 51 | 1010.2 |
| 20260507100547 | 11 | 305 | 4.8 | 0.0 | 0.00 | 0.00 | 0.00 | 51 | 1010.1 |
| 20260507095512 | 11 | 314 | 1.6 | 0.0 | 0.00 | 0.00 | 0.00 | 51 | 1010.3 |
| 20260507095027 | 11 | 314 | 1.6 | 0.0 | 0.00 | 0.00 | 0.00 | 51 | 1010.3 |
| 20260507094546 | 11 | 355 | 1.6 | 0.0 | 0.00 | 0.00 | 0.00 | 51 | 1010.4 |
| 20260507094003 | 11 | 355 | 4.8 | 0.0 | 0.00 | 0.00 | 0.00 | 51 | 1010.6 |
| 20260507093522 | 11 | 355 | 4.8 | 0.0 | 0.00 | 0.00 | 0.00 | 51 | 1010.6 |
| 20260507093046 | 11 | 44 | 4.8 | 0.0 | 0.00 | 0.00 | 0.00 | 51 | 1010.6 |
| 20260507092554 | 11 | 44 | 4.8 | 0.0 | 0.00 | 0.00 | 0.00 | 51 | 1010.5 |
| 20260507092010 | 11 | 317 | 3.2 | 0.0 | 0.00 | 0.00 | 0.00 | 52 | 1010.6 |
| 20260507091529 | 10 | 82 | 3.2 | 0.0 | 0.00 | 0.00 | 0.00 | 53 | 1010.5 |
| 20260507091050 | 10 | 232 | 1.6 | 0.0 | 0.00 | 0.00 | 0.00 | 53 | 1010.5 |
| 20260507090604 | 11 | 233 | 3.2 | 0.0 | 0.00 | 0.00 | 0.00 | 52 | 1010.5 |
| 20260507090013 | 11 | 233 | 3.2 | 0.0 | 0.00 | 0.00 | 0.00 | 50 | 1010.3 |
| 20260507085530 | 11 | 231 | 3.2 | 0.0 | 0.00 | 0.00 | 0.00 | 49 | 1010.4 |
| 20260507085050 | 11 | 231 | 3.2 | 0.0 | 0.00 | 0.00 | 0.00 | 50 | 1010.3 |
| 20260507084502 | 11 | 233 | 1.6 | 0.0 | 0.00 | 0.00 | 0.00 | 49 | 1010.3 |
| 20260507084018 | 11 | 233 | 1.6 | 0.0 | 0.00 | 0.00 | 0.00 | 49 | 1010.4 |
| 20260507083538 | 11 | 233 | 1.6 | 0.0 | 0.00 | 0.00 | 0.00 | 49 | 1010.5 |
| 20260507083054 | 11 | 233 | 3.2 | 0.0 | 0.00 | 0.00 | 0.00 | 50 | 1010.5 |
| 20260507082505 | 11 | 185 | 3.2 | 0.0 | 0.00 | 0.00 | 0.00 | 50 | 1010.5 |
| 20260507082023 | 11 | 198 | 3.2 | 0.0 | 0.00 | 0.00 | 0.00 | 50 | 1010.6 |
| 20260507081535 | 11 | 225 | 4.8 | 0.0 | 0.00 | 0.00 | 0.00 | 50 | 1010.6 |
| 20260507081048 | 11 | 273 | 4.8 | 0.0 | 0.00 | 0.00 | 0.00 | 50 | 1010.7 |
| 20260507080608 | 11 | 360 | 4.8 | 0.0 | 0.00 | 0.00 | 0.00 | 50 | 1010.7 |
| 20260507080020 | 11 | 248 | 6.4 | 0.0 | 0.00 | 0.00 | 0.00 | 50 | 1010.8 |
| 20260507075536 | 11 | 244 | 6.4 | 0.0 | 0.00 | 0.00 | 0.00 | 49 | 1010.8 |
| 20260507075059 | 11 | 207 | 6.4 | 0.0 | 0.00 | 0.00 | 0.00 | 49 | 1010.8 |
| 20260507074507 | 11 | 212 | 4.8 | 0.0 | 0.00 | 0.00 | 0.00 | 49 | 1010.9 |
| 20260507074026 | 11 | 221 | 4.8 | 0.0 | 0.00 | 0.00 | 0.00 | 50 | 1010.9 |
| 20260507073539 | 11 | 221 | 6.4 | 0.0 | 0.00 | 0.00 | 0.00 | 50 | 1010.9 |
| 20260507073056 | 11 | 221 | 6.4 | 0.0 | 0.00 | 0.00 | 0.00 | 51 | 1010.9 |
| 20260507072513 | 11 | 221 | 6.4 | 0.0 | 0.00 | 0.00 | 0.00 | 52 | 1011.0 |
| 20260507072028 | 10 | 130 | 6.4 | 0.0 | 0.00 | 0.00 | 0.00 | 52 | 1011.0 |
| 20260507071601 | 10 | 150 | 8.0 | 0.0 | 0.00 | 0.00 | 0.00 | 52 | 1011.2 |
| 20260507071102 | 10 | 148 | 8.0 | 0.0 | 0.00 | 0.00 | 0.00 | 52 | 1011.2 |
| 20260507070514 | 10 | 127 | 9.7 | 0.0 | 0.00 | 0.00 | 0.00 | 51 | 1011.2 |
| 20260507070026 | 10 | 170 | 8.0 | 0.0 | 0.00 | 0.00 | 0.00 | 51 | 1011.4 |
| 20260507065548 | 10 | 157 | 8.0 | 0.0 | 0.00 | 0.00 | 0.00 | 51 | 1011.4 |
| 20260507065002 | 10 | 165 | 4.8 | 0.0 | 0.00 | 0.00 | 0.00 | 53 | 1011.4 |
| 20260507064519 | 10 | 194 | 3.2 | 0.0 | 0.00 | 0.00 | 0.00 | 52 | 1011.6 |
| 20260507064037 | 10 | 194 | 3.2 | 0.0 | 0.00 | 0.00 | 0.00 | 52 | 1011.5 |
| 20260507063556 | 10 | 138 | 3.2 | 0.0 | 0.00 | 0.00 | 0.00 | 52 | 1011.4 |
| 20260507063006 | 10 | 183 | 6.4 | 0.0 | 0.00 | 0.00 | 0.00 | 52 | 1011.6 |
| 20260507062528 | 9 | 182 | 8.0 | 0.0 | 0.00 | 0.00 | 0.00 | 54 | 1011.6 |
| 20260507062044 | 9 | 188 | 9.7 | 0.0 | 0.00 | 0.00 | 0.00 | 54 | 1011.7 |
| 20260507061505 | 9 | 140 | 9.7 | 0.0 | 0.00 | 0.00 | 0.00 | 54 | 1011.5 |
| 20260507061019 | 10 | 140 | 8.0 | 0.0 | 0.00 | 0.00 | 0.00 | 54 | 1011.5 |
| 20260507060532 | 10 | 134 | 4.8 | 0.0 | 0.00 | 0.00 | 0.00 | 51 | 1011.5 |
| 20260507060047 | 10 | 188 | 3.2 | 0.0 | 0.00 | 0.00 | 0.00 | 50 | 1011.5 |
| 20260507055603 | 10 | 218 | 4.8 | 0.0 | 0.00 | 0.00 | 0.00 | 50 | 1011.6 |
| 20260507055015 | 10 | 218 | 6.4 | 0.0 | 0.00 | 0.00 | 0.00 | 50 | 1011.7 |
| 20260507054531 | 11 | 227 | 6.4 | 0.0 | 0.00 | 0.00 | 0.00 | 49 | 1011.8 |
| 20260507054046 | 11 | 247 | 6.4 | 0.0 | 0.00 | 0.00 | 0.00 | 47 | 1011.8 |
| 20260507053501 | 11 | 229 | 8.0 | 0.0 | 0.00 | 0.00 | 0.00 | 47 | 1011.9 |
| 20260507053021 | 10 | 229 | 6.4 | 0.0 | 0.00 | 0.00 | 0.00 | 48 | 1011.8 |
| 20260507052538 | 10 | 97 | 4.8 | 0.0 | 0.00 | 0.00 | 0.00 | 48 | 1011.8 |
| 20260507052057 | 11 | 50 | 3.2 | 0.0 | 0.00 | 0.00 | 0.00 | 48 | 1011.8 |
| 20260507051519 | 10 | 50 | 1.6 | 0.0 | 0.00 | 0.00 | 0.00 | 48 | 1011.8 |
| 20260507051025 | 10 | 50 | 3.2 | 0.0 | 0.00 | 0.00 | 0.00 | 49 | 1011.8 |
| 20260507050543 | 10 | 50 | 3.2 | 0.0 | 0.00 | 0.00 | 0.00 | 49 | 1011.9 |
| 20260507050104 | 10 | 50 | 3.2 | 0.0 | 0.00 | 0.00 | 0.00 | 49 | 1011.9 |
| 20260507045511 | 10 | 50 | 6.4 | 0.0 | 0.00 | 0.00 | 0.00 | 49 | 1011.9 |
| 20260507045028 | 11 | 178 | 8.0 | 0.0 | 0.00 | 0.00 | 0.00 | 49 | 1012.2 |
| 20260507044549 | 11 | 195 | 9.7 | 0.0 | 0.00 | 0.00 | 0.00 | 48 | 1011.9 |
| 20260507044104 | 11 | 205 | 8.0 | 0.0 | 0.00 | 0.00 | 0.00 | 48 | 1012.0 |
| 20260507043513 | 11 | 204 | 6.4 | 0.0 | 0.00 | 0.00 | 0.00 | 48 | 1012.1 |
| 20260507043030 | 10 | 211 | 6.4 | 0.0 | 0.00 | 0.00 | 0.00 | 50 | 1012.1 |
| 20260507042545 | 10 | 211 | 6.4 | 0.0 | 0.00 | 0.00 | 0.00 | 51 | 1012.1 |
| 20260507042103 | 10 | 211 | 4.8 | 0.0 | 0.00 | 0.00 | 0.00 | 51 | 1012.1 |
| 20260507041510 | 11 | 215 | 4.8 | 0.0 | 0.00 | 0.00 | 0.00 | 51 | 1012.1 |
| 20260507041026 | 11 | 215 | 6.4 | 0.0 | 0.00 | 0.00 | 0.00 | 49 | 1012.2 |
| 20260507040544 | 11 | 215 | 8.0 | 0.0 | 0.00 | 0.00 | 0.00 | 49 | 1012.2 |
| 20260507040118 | 11 | 215 | 9.7 | 0.0 | 0.00 | 0.00 | 0.00 | 49 | 1012.2 |
| 20260507035512 | 12 | 215 | 9.7 | 0.0 | 0.00 | 0.00 | 0.00 | 47 | 1012.1 |
| 20260507035029 | 12 | 219 | 8.0 | 0.0 | 0.00 | 0.00 | 0.00 | 46 | 1012.1 |
| 20260507034547 | 11 | 315 | 6.4 | 0.0 | 0.00 | 0.00 | 0.00 | 46 | 1012.1 |
| 20260507034102 | 11 | 315 | 4.8 | 0.0 | 0.00 | 0.00 | 0.00 | 48 | 1012.1 |
| 20260507033513 | 11 | 315 | 4.8 | 0.0 | 0.00 | 0.00 | 0.00 | 52 | 1012.1 |
| 20260507033039 | 11 | 315 | 4.8 | 0.0 | 0.00 | 0.00 | 0.00 | 52 | 1012.1 |
| 20260507032547 | 11 | 315 | 4.8 | 0.0 | 0.00 | 0.00 | 0.00 | 51 | 1012.1 |
| 20260507032001 | 12 | 315 | 3.2 | 0.0 | 0.00 | 0.00 | 0.00 | 48 | 1012.0 |
| 20260507031521 | 12 | 315 | 4.8 | 0.0 | 0.00 | 0.00 | 0.00 | 46 | 1012.0 |
| 20260507031040 | 12 | 315 | 6.4 | 0.0 | 0.00 | 0.00 | 0.00 | 44 | 1012.0 |
| 20260507030552 | 12 | 315 | 6.4 | 0.0 | 0.00 | 0.00 | 0.00 | 45 | 1012.1 |
| 20260507030010 | 12 | 315 | 4.8 | 0.0 | 0.00 | 0.00 | 0.00 | 45 | 1012.1 |
| 20260507025529 | 12 | 315 | 4.8 | 0.0 | 0.00 | 0.00 | 0.00 | 46 | 1012.2 |
| 20260507025047 | 12 | 315 | 4.8 | 0.0 | 0.00 | 0.00 | 0.00 | 46 | 1012.1 |
| 20260507024606 | 12 | 320 | 4.8 | 0.0 | 0.00 | 0.00 | 0.00 | 44 | 1012.2 |
| 20260507024015 | 12 | 320 | 4.8 | 0.0 | 0.00 | 0.00 | 0.00 | 42 | 1012.5 |
| 20260507023531 | 13 | 320 | 3.2 | 0.0 | 0.00 | 0.00 | 0.00 | 42 | 1012.5 |
| 20260507023050 | 13 | 320 | 3.2 | 0.0 | 0.00 | 0.00 | 0.00 | 41 | 1012.4 |
| 20260507022604 | 14 | 320 | 3.2 | 0.0 | 0.00 | 0.00 | 0.00 | 39 | 1012.3 |
| 20260507022013 | 14 | 320 | 1.6 | 0.0 | 0.00 | 0.00 | 0.00 | 36 | 1012.4 |
| 20260507021527 | 14 | 320 | 1.6 | 0.0 | 0.00 | 0.00 | 0.00 | 35 | 1012.5 |
| 20260507021041 | 15 | 320 | 1.6 | 0.0 | 0.00 | 0.00 | 0.00 | 35 | 1012.5 |
| 20260507020604 | 15 | 320 | 3.2 | 0.0 | 0.00 | 0.00 | 0.00 | 34 | 1012.6 |
| 20260507020008 | 15 | 320 | 3.2 | 0.0 | 0.00 | 0.00 | 0.00 | 34 | 1012.6 |
| 20260507015524 | 15 | 320 | 3.2 | 0.0 | 0.00 | 0.00 | 0.00 | 34 | 1012.6 |
| 20260507015042 | 15 | 320 | 1.6 | 0.0 | 0.00 | 0.00 | 0.00 | 34 | 1012.6 |
| 20260507014605 | 15 | 320 | 1.6 | 0.0 | 0.00 | 0.00 | 0.00 | 33 | 1012.7 |
| 20260507014011 | 15 | 320 | 4.8 | 0.0 | 0.00 | 0.00 | 0.00 | 33 | 1012.6 |
| 20260507013522 | 15 | 320 | 6.4 | 0.0 | 0.00 | 0.00 | 0.00 | 33 | 1012.7 |
| 20260507013039 | 15 | 320 | 8.0 | 0.0 | 0.00 | 0.00 | 0.00 | 32 | 1012.7 |
| 20260507012552 | 16 | 320 | 9.7 | 0.0 | 0.00 | 0.00 | 0.00 | 31 | 1012.8 |
| 20260507012004 | 16 | 323 | 12.9 | 0.0 | 0.00 | 0.00 | 0.00 | 30 | 1012.8 |
| 20260507011517 | 16 | 321 | 14.5 | 0.0 | 0.00 | 0.00 | 0.00 | 29 | 1012.9 |
| 20260507011032 | 17 | 316 | 16.1 | 0.0 | 0.00 | 0.00 | 0.00 | 28 | 1012.9 |
| 20260507010551 | 17 | 302 | 19.3 | 0.0 | 0.00 | 0.00 | 0.00 | 28 | 1012.9 |
| 20260507010003 | 17 | 301 | 19.3 | 0.0 | 0.00 | 0.00 | 0.00 | 28 | 1013.1 |
| 20260507005516 | 17 | 331 | 16.1 | 0.0 | 0.00 | 0.00 | 0.00 | 28 | 1013.1 |
| 20260507005033 | 17 | 304 | 14.5 | 0.0 | 0.00 | 0.00 | 0.00 | 28 | 1013.0 |
| 20260507004559 | 16 | 322 | 12.9 | 0.0 | 0.00 | 0.00 | 0.00 | 29 | 1013.2 |
| 20260507004103 | 16 | 299 | 12.9 | 0.0 | 0.00 | 0.00 | 0.00 | 28 | 1013.2 |
| 20260507003512 | 16 | 319 | 11.3 | 0.0 | 0.00 | 0.00 | 0.00 | 28 | 1013.2 |
| 20260507003030 | 17 | 313 | 11.3 | 0.0 | 0.00 | 0.00 | 0.00 | 29 | 1013.3 |
| 20260507002550 | 17 | 328 | 11.3 | 0.0 | 0.00 | 0.00 | 0.00 | 28 | 1013.3 |
| 20260507002006 | 17 | 303 | 6.4 | 0.0 | 0.00 | 0.00 | 0.00 | 29 | 1013.2 |
| 20260507001519 | 16 | 11 | 4.8 | 0.0 | 0.00 | 0.00 | 0.00 | 28 | 1013.3 |
| 20260507001033 | 16 | 11 | 6.4 | 0.0 | 0.00 | 0.00 | 0.00 | 28 | 1013.3 |
| 20260507000548 | 16 | 342 | 9.7 | 0.0 | 0.00 | 0.00 | 0.00 | 28 | 1013.4 |
| 20260507000104 | 17 | 342 | 14.5 | 0.0 | 0.00 | 0.00 | 0.00 | 29 | 1013.4 |
| 20260506235511 | 17 | 313 | 16.1 | 0.0 | 0.00 | 0.00 | 0.00 | 28 | 1013.3 |
| 20260506235022 | 17 | 360 | 12.9 | 0.0 | 0.00 | 0.00 | 0.00 | 28 | 1013.3 |
| 20260506234538 | 17 | 278 | 12.9 | 0.0 | 0.00 | 0.00 | 0.00 | 28 | 1013.4 |
| 20260506234051 | 17 | 277 | 9.7 | 0.0 | 0.00 | 0.00 | 0.00 | 28 | 1013.6 |
| 20260506233506 | 17 | 355 | 9.7 | 0.0 | 0.00 | 0.00 | 0.00 | 28 | 1013.8 |
| 20260506233019 | 17 | 290 | 12.9 | 0.0 | 0.00 | 0.00 | 0.00 | 29 | 1013.9 |
| 20260506232531 | 16 | 267 | 16.1 | 0.0 | 0.00 | 0.00 | 0.00 | 28 | 1013.9 |
| 20260506232044 | 16 | 269 | 14.5 | 0.0 | 0.00 | 0.00 | 0.00 | 29 | 1014.1 |
| 20260506231602 | 16 | 295 | 11.3 | 0.0 | 0.00 | 0.00 | 0.00 | 29 | 1014.1 |
| 20260506231008 | 16 | 263 | 9.7 | 0.0 | 0.00 | 0.00 | 0.00 | 31 | 1014.3 |
| 20260506230517 | 16 | 355 | 11.3 | 0.0 | 0.00 | 0.00 | 0.00 | 31 | 1014.3 |
| 20260506230037 | 15 | 12 | 12.9 | 0.0 | 0.00 | 0.00 | 0.00 | 31 | 1014.3 |
| 20260506225551 | 15 | 319 | 12.9 | 0.0 | 0.00 | 0.00 | 0.00 | 31 | 1014.3 |
| 20260506225003 | 15 | 331 | 12.9 | 0.0 | 0.00 | 0.00 | 0.00 | 31 | 1014.4 |
| 20260506224520 | 15 | 290 | 9.7 | 0.0 | 0.00 | 0.00 | 0.00 | 30 | 1014.5 |
| 20260506224039 | 15 | 290 | 9.7 | 0.0 | 0.00 | 0.00 | 0.00 | 30 | 1014.5 |
| 20260506223555 | 15 | 292 | 11.3 | 0.0 | 0.00 | 0.00 | 0.00 | 31 | 1014.5 |
| 20260506223110 | 15 | 296 | 14.5 | 0.0 | 0.00 | 0.00 | 0.00 | 30 | 1014.7 |
| 20260506222515 | 15 | 255 | 16.1 | 0.0 | 0.00 | 0.00 | 0.00 | 29 | 1014.7 |
| 20260506222034 | 16 | 288 | 16.1 | 0.0 | 0.00 | 0.00 | 0.00 | 29 | 1014.7 |
| 20260506221546 | 15 | 279 | 16.1 | 0.0 | 0.00 | 0.00 | 0.00 | 30 | 1014.9 |
| 20260506221101 | 15 | 315 | 19.3 | 0.0 | 0.00 | 0.00 | 0.00 | 30 | 1015.1 |
| 20260506220516 | 15 | 284 | 22.5 | 0.0 | 0.00 | 0.00 | 0.00 | 29 | 1015.2 |
| 20260506220038 | 15 | 360 | 16.1 | 0.0 | 0.00 | 0.00 | 0.00 | 30 | 1015.3 |
| 20260506215548 | 15 | 324 | 12.9 | 0.0 | 0.00 | 0.00 | 0.00 | 30 | 1015.3 |
| 20260506215058 | 15 | 311 | 14.5 | 0.0 | 0.00 | 0.00 | 0.00 | 30 | 1015.4 |
| 20260506214510 | 15 | 325 | 17.7 | 0.0 | 0.00 | 0.00 | 0.00 | 29 | 1015.5 |
| 20260506214025 | 15 | 286 | 19.3 | 0.0 | 0.00 | 0.00 | 0.00 | 29 | 1015.6 |
| 20260506213543 | 15 | 277 | 20.9 | 0.0 | 0.00 | 0.00 | 0.00 | 30 | 1015.7 |
| 20260506213056 | 15 | 281 | 20.9 | 0.0 | 0.00 | 0.00 | 0.00 | 30 | 1015.6 |
| 20260506212507 | 15 | 340 | 20.9 | 0.0 | 0.00 | 0.00 | 0.00 | 31 | 1015.6 |
| 20260506212026 | 15 | 314 | 22.5 | 0.0 | 0.00 | 0.00 | 0.00 | 30 | 1015.6 |
| 20260506211541 | 15 | 314 | 20.9 | 0.0 | 0.00 | 0.00 | 0.00 | 29 | 1015.7 |
| 20260506211059 | 15 | 336 | 22.5 | 0.0 | 0.00 | 0.00 | 0.00 | 30 | 1015.8 |
| 20260506210513 | 15 | 281 | 24.1 | 0.0 | 0.00 | 0.00 | 0.00 | 30 | 1016.0 |
| 20260506210027 | 15 | 327 | 22.5 | 0.0 | 0.00 | 0.00 | 0.00 | 30 | 1016.1 |
| 20260506205542 | 15 | 334 | 22.5 | 0.0 | 0.00 | 0.00 | 0.00 | 30 | 1016.2 |
| 20260506205101 | 14 | 327 | 19.3 | 0.0 | 0.00 | 0.00 | 0.00 | 30 | 1016.2 |
| 20260506204516 | 14 | 331 | 12.9 | 0.0 | 0.00 | 0.00 | 0.00 | 32 | 1016.2 |
| 20260506204032 | 14 | 25 | 11.3 | 0.0 | 0.00 | 0.00 | 0.00 | 32 | 1016.4 |
| 20260506203548 | 14 | 26 | 8.0 | 0.0 | 0.00 | 0.00 | 0.00 | 33 | 1016.5 |
| 20260506203059 | 13 | 69 | 8.0 | 0.0 | 0.00 | 0.00 | 0.00 | 33 | 1016.6 |
| 20260506202510 | 13 | 74 | 9.7 | 0.0 | 0.00 | 0.00 | 0.00 | 33 | 1016.7 |
| 20260506202026 | 13 | 51 | 6.4 | 0.0 | 0.00 | 0.00 | 0.00 | 32 | 1016.7 |
| 20260506201542 | 13 | 23 | 6.4 | 0.0 | 0.00 | 0.00 | 0.00 | 31 | 1016.6 |
| 20260506201057 | 13 | 360 | 6.4 | 0.0 | 0.00 | 0.00 | 0.00 | 32 | 1016.6 |
| 20260506200510 | 13 | 171 | 6.4 | 0.0 | 0.00 | 0.00 | 0.00 | 32 | 1016.8 |
| 20260506200027 | 12 | 318 | 8.0 | 0.0 | 0.00 | 0.00 | 0.00 | 32 | 1016.8 |
| 20260506195539 | 12 | 300 | 8.0 | 0.0 | 0.00 | 0.00 | 0.00 | 31 | 1016.8 |
| 20260506195057 | 12 | 260 | 6.4 | 0.0 | 0.00 | 0.00 | 0.00 | 31 | 1016.9 |
| 20260506194507 | 12 | 44 | 6.4 | 0.0 | 0.00 | 0.00 | 0.00 | 32 | 1017.1 |
| 20260506194022 | 12 | 297 | 6.4 | 0.0 | 0.00 | 0.00 | 0.00 | 32 | 1017.2 |
| 20260506193538 | 12 | 305 | 6.4 | 0.0 | 0.00 | 0.00 | 0.00 | 32 | 1017.2 |
| 20260506193055 | 12 | 57 | 8.0 | 0.0 | 0.00 | 0.00 | 0.00 | 33 | 1017.3 |
| 20260506192501 | 12 | 87 | 8.0 | 0.0 | 0.00 | 0.00 | 0.00 | 33 | 1017.4 |
| 20260506192019 | 12 | 320 | 9.7 | 0.0 | 0.00 | 0.00 | 0.00 | 32 | 1017.4 |
| 20260506191545 | 12 | 15 | 8.0 | 0.0 | 0.00 | 0.00 | 0.00 | 32 | 1017.6 |
| 20260506191107 | 12 | 50 | 6.4 | 0.0 | 0.00 | 0.00 | 0.00 | 33 | 1017.5 |
| 20260506190521 | 12 | 265 | 6.4 | 0.0 | 0.00 | 0.00 | 0.00 | 31 | 1017.7 |